createdAt,value
2022-11-14T00:00:48.405Z,97153.19
2022-11-14T00:03:34.013Z,97138.13
2022-11-14T00:06:20.233Z,97140.53
2022-11-14T00:09:05.819Z,97140.09
2022-11-14T00:11:51.259Z,97138.91
2022-11-14T00:14:37.321Z,97127.84
2022-11-14T00:17:23.123Z,97127.44
2022-11-14T00:20:11.872Z,97116.19
2022-11-14T00:22:57.910Z,97113.56
2022-11-14T00:25:45.367Z,97107.31
2022-11-14T00:28:31.411Z,97102.47
2022-11-14T00:31:17.240Z,97105.69
2022-11-14T00:34:02.961Z,97102.88
2022-11-14T00:36:48.800Z,97093.78
2022-11-14T00:39:34.621Z,97086.75
2022-11-14T00:42:20.021Z,97088.34
2022-11-14T00:45:06.449Z,97087.16
2022-11-14T00:47:52.120Z,97083.53
2022-11-14T00:50:38.319Z,97081.91
2022-11-14T00:53:24.079Z,97073.06
2022-11-14T00:56:09.519Z,97078.69
2022-11-14T00:58:55.261Z,97092.41
2022-11-14T01:01:41.000Z,97095.03
2022-11-14T01:04:26.520Z,97091.97
2022-11-14T01:07:11.861Z,97091.41
2022-11-14T01:09:57.439Z,97082.53
2022-11-14T01:12:42.879Z,97081.53
2022-11-14T01:15:28.181Z,97077.91
2022-11-14T01:18:19.727Z,97084.13
2022-11-14T01:21:07.299Z,97082.31
2022-11-14T01:23:52.879Z,97080.72
2022-11-14T01:26:38.463Z,97082.53
2022-11-14T01:29:24.019Z,97078.69
2022-11-14T01:32:09.603Z,97069.84
2022-11-14T01:34:55.279Z,97076.88
2022-11-14T01:37:41.099Z,97074.69
2022-11-14T01:40:27.184Z,97066.06
2022-11-14T01:43:19.201Z,97057.63
2022-11-14T01:46:06.661Z,97057.41
2022-11-14T01:49:10.840Z,97049.13
2022-11-14T01:52:12.620Z,97036.06
2022-11-14T01:55:01.380Z,97036.50
2022-11-14T01:57:48.400Z,97032.84
2022-11-14T02:00:34.181Z,97044.13
2022-11-14T02:03:20.481Z,97037.06
2022-11-14T02:06:09.640Z,97039.13
2022-11-14T02:08:56.967Z,97038.53
2022-11-14T02:11:46.000Z,97033.91
2022-11-14T02:14:32.854Z,97027.25
2022-11-14T02:17:34.765Z,97021.69
2022-11-14T02:20:33.973Z,97023.88
2022-11-14T02:23:27.739Z,97015.09
2022-11-14T02:26:13.400Z,97015.53
2022-11-14T02:28:59.059Z,97018.34
2022-11-14T02:31:44.841Z,97012.94
2022-11-14T02:34:30.967Z,97015.41
2022-11-14T02:37:16.761Z,97019.41
2022-11-14T02:40:02.542Z,97004.56
2022-11-14T02:42:48.120Z,97013.78
2022-11-14T02:45:33.620Z,97013.06
2022-11-14T02:48:19.419Z,97018.50
2022-11-14T02:51:05.319Z,97019.94
2022-11-14T02:53:51.160Z,97011.94
2022-11-14T02:56:36.881Z,97015.38
2022-11-14T02:59:22.480Z,97008.75
2022-11-14T03:02:08.389Z,97009.53
2022-11-14T03:04:54.430Z,97009.56
2022-11-14T03:07:40.000Z,97017.19
2022-11-14T03:10:25.802Z,97016.19
2022-11-14T03:13:11.623Z,97011.97
2022-11-14T03:15:57.184Z,97003.75
2022-11-14T03:18:43.088Z,96992.72
2022-11-14T03:21:28.841Z,96979.47
2022-11-14T03:24:14.408Z,96984.28
2022-11-14T03:26:59.979Z,96991.09
2022-11-14T03:29:45.599Z,96992.13
2022-11-14T03:32:31.181Z,96995.31
2022-11-14T03:35:16.880Z,96991.09
2022-11-14T03:38:02.300Z,96983.25
2022-11-14T03:40:47.820Z,96973.84
2022-11-14T03:43:34.440Z,96973.63
2022-11-14T03:46:20.122Z,96979.84
2022-11-14T03:49:05.621Z,96987.91
2022-11-14T03:51:51.120Z,96994.13
2022-11-14T03:54:37.263Z,96985.50
2022-11-14T03:57:22.940Z,96971.66
2022-11-14T04:00:10.918Z,96956.00
2022-11-14T04:02:57.822Z,96953.78
2022-11-14T04:05:45.552Z,96949.97
2022-11-14T04:08:31.499Z,96968.63
2022-11-14T04:11:17.441Z,96970.84
2022-11-14T04:14:03.280Z,96972.84
2022-11-14T04:16:48.845Z,96973.03
2022-11-14T04:19:34.545Z,96971.22
2022-11-14T04:22:20.040Z,96969.41
2022-11-14T04:25:06.342Z,96979.66
2022-11-14T04:27:51.782Z,96992.34
2022-11-14T04:30:37.661Z,96981.66
2022-11-14T04:33:23.262Z,96992.13
2022-11-14T04:36:09.162Z,96991.16
2022-11-14T04:38:54.522Z,96999.38
2022-11-14T04:41:40.109Z,96999.97
2022-11-14T04:44:25.561Z,97002.78
2022-11-14T04:47:11.141Z,96998.34
2022-11-14T04:49:56.620Z,96998.97
2022-11-14T04:52:42.282Z,97004.38
2022-11-14T04:55:28.167Z,96995.16
2022-11-14T04:58:13.680Z,97001.97
2022-11-14T05:00:59.512Z,96999.56
2022-11-14T05:03:45.142Z,97002.78
2022-11-14T05:06:30.984Z,97005.78
2022-11-14T05:09:16.480Z,96989.13
2022-11-14T05:12:02.522Z,96996.53
2022-11-14T05:14:49.189Z,96996.13
2022-11-14T05:17:35.317Z,96981.88
2022-11-14T05:20:21.074Z,96980.44
2022-11-14T05:23:06.833Z,96978.25
2022-11-14T05:26:03.053Z,96969.41
2022-11-14T05:28:48.754Z,96960.34
2022-11-14T05:31:34.331Z,96968.78
2022-11-14T05:34:19.872Z,96963.16
2022-11-14T05:37:05.652Z,96966.53
2022-11-14T05:39:51.473Z,96961.13
2022-11-14T05:42:37.245Z,96978.59
2022-11-14T05:45:22.834Z,96981.00
2022-11-14T05:48:08.593Z,96991.88
2022-11-14T05:51:04.498Z,96987.44
2022-11-14T05:53:50.193Z,96990.28
2022-11-14T05:56:36.114Z,96989.06
2022-11-14T05:59:21.854Z,96996.53
2022-11-14T06:02:07.302Z,96994.13
2022-11-14T06:04:52.692Z,97000.16
2022-11-14T06:07:39.429Z,96996.72
2022-11-14T06:10:25.814Z,96994.94
2022-11-14T06:13:11.355Z,97001.16
2022-11-14T06:16:03.715Z,96996.34
2022-11-14T06:18:49.553Z,96997.94
2022-11-14T06:21:35.292Z,96996.75
2022-11-14T06:24:20.734Z,96993.34
2022-11-14T06:27:06.496Z,97002.16
2022-11-14T06:29:52.036Z,96991.91
2022-11-14T06:32:37.375Z,96991.72
2022-11-14T06:35:22.815Z,97002.34
2022-11-14T06:38:08.415Z,96998.53
2022-11-14T06:40:53.919Z,97005.53
2022-11-14T06:43:41.576Z,97002.94
2022-11-14T06:46:27.307Z,96998.69
2022-11-14T06:49:12.912Z,96994.06
2022-11-14T06:51:58.294Z,96997.28
2022-11-14T06:54:43.693Z,96991.25
2022-11-14T06:57:29.552Z,96986.63
2022-11-14T07:00:15.583Z,96980.97
2022-11-14T07:03:01.360Z,96985.16
2022-11-14T07:05:46.813Z,96986.16
2022-11-14T07:08:33.479Z,96985.72
2022-11-14T07:11:26.014Z,96992.94
2022-11-14T07:14:11.755Z,96991.31
2022-11-14T07:16:58.391Z,96989.25
2022-11-14T07:19:44.216Z,96984.03
2022-11-14T07:22:29.932Z,96989.28
2022-11-14T07:25:16.071Z,96985.00
2022-11-14T07:28:01.712Z,96996.03
2022-11-14T07:30:47.541Z,96988.19
2022-11-14T07:33:33.672Z,96985.19
2022-11-14T07:36:19.353Z,96986.13
2022-11-14T07:39:05.338Z,96986.09
2022-11-14T07:41:51.033Z,96981.25
2022-11-14T07:44:36.693Z,96985.03
2022-11-14T07:47:22.592Z,96975.59
2022-11-14T07:50:08.795Z,96981.25
2022-11-14T07:52:55.534Z,96976.63
2022-11-14T07:55:41.434Z,96986.28
2022-11-14T07:58:27.400Z,96975.84
2022-11-14T08:01:14.829Z,96969.19
2022-11-14T08:04:00.592Z,96973.44
2022-11-14T08:06:46.508Z,96974.59
2022-11-14T08:09:32.052Z,96969.09
2022-11-14T08:12:17.552Z,96972.47
2022-11-14T08:15:03.215Z,96960.38
2022-11-14T08:17:48.711Z,96964.31
2022-11-14T08:20:34.197Z,96968.69
2022-11-14T08:23:19.778Z,96959.34
2022-11-14T08:26:05.655Z,96962.84
2022-11-14T08:28:54.695Z,96965.84
2022-11-14T08:31:40.317Z,96958.16
2022-11-14T08:34:26.152Z,96954.44
2022-11-14T08:37:12.113Z,96957.81
2022-11-14T08:39:57.692Z,96955.31
2022-11-14T08:42:43.080Z,96954.53
2022-11-14T08:45:29.974Z,96955.63
2022-11-14T08:48:15.612Z,96955.69
2022-11-14T08:51:06.166Z,96960.59
2022-11-14T08:53:52.657Z,96958.47
2022-11-14T08:56:38.272Z,96954.16
2022-11-14T08:59:24.018Z,96959.94
2022-11-14T09:02:16.652Z,96954.72
2022-11-14T09:05:02.459Z,96951.28
2022-11-14T09:07:47.918Z,96957.66
2022-11-14T09:10:33.854Z,96962.47
2022-11-14T09:13:19.515Z,96963.06
2022-11-14T09:16:05.473Z,96956.00
2022-11-14T09:18:50.952Z,96960.16
2022-11-14T09:21:36.493Z,96959.56
2022-11-14T09:24:21.911Z,96958.31
2022-11-14T09:27:07.560Z,96963.41
2022-11-14T09:29:53.032Z,96959.34
2022-11-14T09:32:38.572Z,96960.63
2022-11-14T09:35:24.072Z,96955.38
2022-11-14T09:38:11.855Z,96948.13
2022-11-14T09:41:09.832Z,96949.47
2022-11-14T09:44:20.567Z,96933.56
2022-11-14T09:47:20.457Z,96930.72
2022-11-14T09:50:30.620Z,96925.81
2022-11-14T09:53:33.451Z,96918.34
2022-11-14T09:56:25.050Z,96906.75
2022-11-14T09:59:12.554Z,96902.91
2022-11-14T10:02:37.994Z,96897.50
2022-11-14T10:05:42.371Z,96896.13
2022-11-14T10:08:50.993Z,96897.25
2022-11-14T10:11:38.792Z,96894.50
2022-11-14T10:15:10.811Z,96893.53
2022-11-14T10:18:19.532Z,96889.28
2022-11-14T10:21:27.811Z,96894.66
2022-11-14T10:24:41.262Z,96889.16
2022-11-14T10:27:34.651Z,96865.91
2022-11-14T10:30:20.593Z,96865.75
2022-11-14T10:33:15.495Z,96860.00
2022-11-14T10:36:19.573Z,96860.81
2022-11-14T10:39:22.109Z,96855.94
2022-11-14T10:42:30.274Z,96861.16
2022-11-14T10:45:26.360Z,96860.06
2022-11-14T10:48:38.351Z,96863.06
2022-11-14T10:51:31.993Z,96861.41
2022-11-14T10:54:42.054Z,96856.94
2022-11-14T10:57:28.980Z,96848.03
2022-11-14T11:00:22.954Z,96845.78
2022-11-14T11:03:08.695Z,96840.25
2022-11-14T11:06:00.160Z,96845.31
2022-11-14T11:09:04.519Z,96833.94
2022-11-14T11:12:16.202Z,96831.03
2022-11-14T11:15:16.638Z,96822.53
2022-11-14T11:18:05.423Z,96818.00
2022-11-14T11:21:09.653Z,96819.25
2022-11-14T11:23:58.453Z,96819.81
2022-11-14T11:26:44.292Z,96817.13
2022-11-14T11:29:30.133Z,96803.59
2022-11-14T11:32:26.614Z,96799.25
2022-11-14T11:35:14.635Z,96796.06
2022-11-14T11:38:03.115Z,96784.13
2022-11-14T11:40:52.872Z,96785.63
2022-11-14T11:44:01.837Z,96783.81
2022-11-14T11:46:56.561Z,96777.91
2022-11-14T11:49:54.656Z,96778.84
2022-11-14T11:53:02.813Z,96769.19
2022-11-14T11:55:52.613Z,96767.31
2022-11-14T11:58:46.432Z,96763.59
2022-11-14T12:13:27.134Z,96738.19
2022-11-14T12:16:19.238Z,96734.75
2022-11-14T12:19:23.092Z,96729.88
2022-11-14T12:22:27.254Z,96738.69
2022-11-14T12:25:40.706Z,96727.00
2022-11-14T12:28:59.499Z,96716.88
2022-11-14T12:31:46.836Z,96719.31
2022-11-14T12:34:35.293Z,96708.13
2022-11-14T12:37:37.048Z,96711.31
2022-11-14T12:40:38.014Z,96709.88
2022-11-14T12:43:38.864Z,96706.44
2022-11-14T12:46:24.893Z,96699.25
2022-11-14T12:49:52.885Z,96702.56
2022-11-14T12:52:41.081Z,96706.13
2022-11-14T12:55:26.542Z,96710.06
2022-11-14T12:58:17.833Z,96698.75
2022-11-14T13:01:27.047Z,96711.88
2022-11-14T13:04:18.653Z,96701.78
2022-11-14T13:07:07.548Z,96716.53
2022-11-14T13:10:12.112Z,96709.50
2022-11-14T13:13:29.497Z,96699.75
2022-11-14T13:16:51.160Z,96708.09
2022-11-14T13:20:05.616Z,96700.66
2022-11-14T13:22:51.398Z,96710.09
2022-11-14T13:25:37.118Z,96701.44
2022-11-14T13:28:38.401Z,96696.47
2022-11-14T13:31:26.563Z,96703.72
2022-11-14T13:34:30.914Z,96703.13
2022-11-14T13:37:44.253Z,96698.00
2022-11-14T13:40:32.253Z,96705.50
2022-11-14T13:43:26.773Z,96704.75
2022-11-14T13:46:30.573Z,96697.19
2022-11-14T13:49:18.796Z,96706.25
2022-11-14T13:52:05.493Z,96702.47
2022-11-14T13:54:51.294Z,96704.59
2022-11-14T13:58:06.015Z,96715.59
2022-11-14T14:01:07.035Z,96714.59
2022-11-14T14:04:13.372Z,96708.69
2022-11-14T14:07:29.945Z,96718.91
2022-11-14T14:10:15.526Z,96708.41
2022-11-14T14:13:32.405Z,96711.31
2022-11-14T14:16:30.635Z,96702.63
2022-11-14T14:19:47.113Z,96706.78
2022-11-14T14:22:53.916Z,96714.25
2022-11-14T14:26:28.999Z,96713.44
2022-11-14T14:29:31.114Z,96713.28
2022-11-14T14:32:18.955Z,96718.69
2022-11-14T14:35:40.878Z,96719.06
2022-11-14T14:38:28.471Z,96721.06
2022-11-14T14:41:15.599Z,96714.09
2022-11-14T14:44:01.736Z,96722.66
2022-11-14T14:46:48.062Z,96721.69
2022-11-14T14:49:38.797Z,96710.78
2022-11-14T14:52:31.772Z,96713.69
2022-11-14T14:55:32.854Z,96705.84
2022-11-14T14:58:28.411Z,96708.34
2022-11-14T15:01:19.428Z,96715.00
2022-11-14T15:04:12.133Z,96712.53
2022-11-14T15:06:58.509Z,96723.34
2022-11-14T15:09:53.782Z,96717.94
2022-11-14T15:12:41.617Z,96724.25
2022-11-14T15:15:28.141Z,96721.69
2022-11-14T15:18:31.758Z,96713.94
2022-11-14T15:21:27.615Z,96709.28
2022-11-14T15:24:18.219Z,96708.84
2022-11-14T15:27:11.360Z,96713.78
2022-11-14T15:30:04.713Z,96722.31
2022-11-14T15:32:59.354Z,96720.28
2022-11-14T15:35:44.781Z,96720.75
2022-11-14T15:38:54.273Z,96722.09
2022-11-14T15:41:35.754Z,96716.75
2022-11-14T15:44:34.843Z,96717.88
2022-11-14T15:47:37.055Z,96708.53
2022-11-14T15:50:32.496Z,96712.44
2022-11-14T15:53:21.334Z,96711.88
2022-11-14T15:56:11.313Z,96705.50
2022-11-14T15:58:56.855Z,96713.72
2022-11-14T16:01:44.708Z,96706.88
2022-11-14T16:04:35.954Z,96708.84
2022-11-14T16:07:22.434Z,96706.66
2022-11-14T16:10:28.335Z,96706.22
2022-11-14T16:13:14.222Z,96703.72
2022-11-14T16:15:59.874Z,96698.69
2022-11-14T16:18:45.571Z,96699.28
2022-11-14T16:21:31.736Z,96692.44
2022-11-14T16:24:20.001Z,96699.81
2022-11-14T16:27:05.977Z,96707.47
2022-11-14T16:29:51.943Z,96695.16
2022-11-14T16:32:37.646Z,96705.19
2022-11-14T16:35:25.954Z,96700.03
2022-11-14T16:38:14.308Z,96690.22
2022-11-14T16:41:00.622Z,96689.50
2022-11-14T16:43:46.377Z,96674.44
2022-11-14T16:46:32.381Z,96675.09
2022-11-14T16:49:20.219Z,96664.72
2022-11-14T16:52:08.853Z,96675.75
2022-11-14T16:54:54.614Z,96685.00
2022-11-14T16:57:40.640Z,96679.75
2022-11-14T17:00:27.917Z,96675.88
2022-11-14T17:03:13.353Z,96670.28
2022-11-14T17:05:59.140Z,96670.28
2022-11-14T17:08:45.012Z,96675.53
2022-11-14T17:11:30.934Z,96677.56
2022-11-14T17:14:16.415Z,96673.84
2022-11-14T17:17:02.280Z,96668.28
2022-11-14T17:19:47.910Z,96669.75
2022-11-14T17:22:33.823Z,96671.81
2022-11-14T17:25:19.573Z,96670.00
2022-11-14T17:28:05.227Z,96673.19
2022-11-14T17:30:50.983Z,96670.78
2022-11-14T17:33:37.773Z,96674.44
2022-11-14T17:36:24.774Z,96671.72
2022-11-14T17:39:10.660Z,96672.75
2022-11-14T17:41:56.110Z,96667.50
2022-11-14T17:44:41.755Z,96670.69
2022-11-14T17:47:28.634Z,96673.91
2022-11-14T17:50:14.615Z,96673.91
2022-11-14T17:53:00.432Z,96673.19
2022-11-14T17:55:46.464Z,96668.72
2022-11-14T17:58:32.629Z,96664.06
2022-11-14T18:01:22.026Z,96661.44
2022-11-14T18:04:07.753Z,96664.59
2022-11-14T18:06:53.484Z,96662.25
2022-11-14T18:09:39.244Z,96663.41
2022-11-14T18:12:24.960Z,96654.47
2022-11-14T18:15:10.923Z,96655.91
2022-11-14T18:17:56.719Z,96653.38
2022-11-14T18:20:41.974Z,96657.50
2022-11-14T18:23:27.538Z,96650.97
2022-11-14T18:26:18.334Z,96650.66
2022-11-14T18:29:03.959Z,96644.13
2022-11-14T18:31:49.816Z,96643.31
2022-11-14T18:34:38.275Z,96644.25
2022-11-14T18:37:23.860Z,96645.41
2022-11-14T18:40:16.125Z,96643.31
2022-11-14T18:43:02.588Z,96636.50
2022-11-14T18:45:48.334Z,96630.47
2022-11-14T18:48:34.979Z,96626.81
2022-11-14T18:51:23.173Z,96626.25
2022-11-14T18:54:12.952Z,96619.72
2022-11-14T18:56:58.881Z,96626.56
2022-11-14T18:59:44.453Z,96623.72
2022-11-14T19:02:30.649Z,96620.06
2022-11-14T19:05:16.424Z,96623.94
2022-11-14T19:08:02.359Z,96621.09
2022-11-14T19:10:48.036Z,96615.38
2022-11-14T19:13:33.908Z,96609.88
2022-11-14T19:16:19.696Z,96613.00
2022-11-14T19:19:06.723Z,96613.56
2022-11-14T19:21:52.692Z,96607.25
2022-11-14T19:24:43.149Z,96606.72
2022-11-14T19:27:28.802Z,96604.91
2022-11-14T19:30:16.694Z,96608.53
2022-11-14T19:33:04.891Z,96612.00
2022-11-14T19:35:51.178Z,96606.09
2022-11-14T19:38:39.698Z,96603.81
2022-11-14T19:41:27.034Z,96603.38
2022-11-14T19:44:13.072Z,96592.44
2022-11-14T19:46:58.632Z,96587.06
2022-11-14T19:49:44.436Z,96597.34
2022-11-14T19:52:30.415Z,96596.53
2022-11-14T19:55:16.091Z,96591.06
2022-11-14T19:58:01.853Z,96600.31
2022-11-14T20:00:47.955Z,96588.75
2022-11-14T20:03:34.054Z,96587.72
2022-11-14T20:06:23.620Z,96584.22
2022-11-14T20:09:10.733Z,96579.31
2022-11-14T20:11:56.233Z,96584.56
2022-11-14T20:14:42.078Z,96581.59
2022-11-14T20:17:28.093Z,96584.13
2022-11-14T20:20:13.895Z,96589.03
2022-11-14T20:22:59.894Z,96584.72
2022-11-14T20:25:52.533Z,96589.41
2022-11-14T20:28:39.434Z,96595.00
2022-11-14T20:31:27.993Z,96594.69
2022-11-14T20:34:13.531Z,96593.56
2022-11-14T20:37:14.617Z,96593.22
2022-11-14T20:40:00.263Z,96592.91
2022-11-14T20:42:49.342Z,96578.19
2022-11-14T20:45:35.234Z,96572.97
2022-11-14T20:48:21.035Z,96574.78
2022-11-14T20:51:08.376Z,96570.66
2022-11-14T20:53:55.153Z,96560.41
2022-11-14T20:56:40.537Z,96566.44
2022-11-14T20:59:26.670Z,96562.00
2022-11-14T21:02:13.277Z,96560.75
2022-11-14T21:04:59.493Z,96562.56
2022-11-14T21:07:45.354Z,96556.53
2022-11-14T21:10:45.943Z,96563.81
2022-11-14T21:13:54.439Z,96551.66
2022-11-14T21:16:40.774Z,96549.28
2022-11-14T21:19:26.819Z,96542.59
2022-11-14T21:22:13.615Z,96538.13
2022-11-14T21:24:59.534Z,96546.56
2022-11-14T21:27:45.291Z,96546.94
2022-11-14T21:30:34.873Z,96544.75
2022-11-14T21:33:20.713Z,96537.13
2022-11-14T21:36:29.995Z,96529.13
2022-11-14T21:39:17.423Z,96534.06
2022-11-14T21:42:03.282Z,96535.28
2022-11-14T21:44:49.053Z,96540.97
2022-11-14T21:47:35.181Z,96523.94
2022-11-14T21:50:20.674Z,96540.66
2022-11-14T21:53:16.216Z,96527.34
2022-11-14T21:56:17.273Z,96519.72
2022-11-14T21:59:15.759Z,96519.34
2022-11-14T22:02:20.997Z,96515.41
2022-11-14T22:05:07.209Z,96513.00
2022-11-14T22:07:52.756Z,96509.34
2022-11-14T22:10:38.522Z,96513.00
2022-11-14T22:13:24.252Z,96510.16
2022-11-14T22:16:11.753Z,96506.16
2022-11-14T22:19:04.461Z,96509.00
2022-11-14T22:21:50.853Z,96509.59
2022-11-14T22:24:36.515Z,96505.38
2022-11-14T22:27:22.277Z,96499.56
2022-11-14T22:30:08.490Z,96506.38
2022-11-14T22:32:53.978Z,96494.09
2022-11-14T22:35:39.672Z,96489.22
2022-11-14T22:38:25.394Z,96482.84
2022-11-14T22:41:19.852Z,96476.78
2022-11-14T22:44:05.592Z,96473.63
2022-11-14T22:46:51.074Z,96477.50
2022-11-14T22:49:36.913Z,96472.16
2022-11-14T22:52:22.356Z,96462.59
2022-11-14T22:55:09.730Z,96465.69
2022-11-14T22:57:58.921Z,96459.66
2022-11-14T23:00:44.933Z,96449.31
2022-11-14T23:03:30.418Z,96442.69
2022-11-14T23:06:18.835Z,96448.84
2022-11-14T23:09:04.753Z,96446.34
2022-11-14T23:11:50.440Z,96436.78
2022-11-14T23:14:36.295Z,96433.16
2022-11-14T23:17:22.132Z,96440.41
2022-11-14T23:20:13.561Z,96440.09
2022-11-14T23:23:01.893Z,96433.69
2022-11-14T23:25:47.612Z,96439.63
2022-11-14T23:28:33.432Z,96447.31
2022-11-14T23:31:19.428Z,96452.78
2022-11-14T23:34:05.393Z,96444.00
2022-11-14T23:36:50.992Z,96439.25
2022-11-14T23:39:36.499Z,96446.72
2022-11-14T23:42:22.239Z,96445.72
2022-11-14T23:45:08.298Z,96449.91
2022-11-14T23:47:54.032Z,96444.47
2022-11-14T23:50:39.536Z,96443.69
2022-11-14T23:53:25.214Z,96435.84
2022-11-14T23:56:13.536Z,96434.56
2022-11-14T23:58:59.392Z,96441.84
